Algowood — VCTD — position and weather

sailwx.info

Track history (hours):
 
Tides and Currents Weather Stations Pressure Air Temp Water Temp Dewpoint Dewpoint Depression Visibility Wind Speed Wind Dir Waves Ship Positions

Algowood

Last reported at 2017-Apr-15 12:56 UTC. Time now 2017-Apr-24 15:24 UTC.
Position N 45°12' W 074°18'.
Warning: this ship's position is 9 days out of date.

Length 223 m; draft 5.5 m.

Type: Cargo ship. MMSI: 316001802.

Date/timePositionNaut miles runAvg speedWind from/ knotsBaromVisibWave heightAir tempDewpointWater temp
2017-Apr-15 12:56N 45°12' W 074°18'610.4
2017-Apr-15 12:24N 45°14' W 074°11'5 8.2
2017-Apr-15 11:48N 45°13' W 074°04'3 8.6
2017-Apr-15 11:30N 45°14' W 074°00'4 8.7
2017-Apr-15 11:00N 45°17' W 073°56'1 2.5
2017-Apr-15 10:30N 45°18' W 073°56'1 1.6
2017-Apr-15 10:00N 45°19' W 073°55'0 0.0
2017-Apr-15 09:30N 45°19' W 073°55'0 0.1
2017-Apr-15 09:00N 45°19' W 073°55'2 3.8
2017-Apr-15 08:30N 45°20' W 073°53'510.4
2017-Apr-15 08:00N 45°24' W 073°48'4 8.6
2017-Apr-15 07:29N 45°25' W 073°41'3 6.0
2017-Apr-15 07:00N 45°24' W 073°37'1 2.5
2017-Apr-15 06:30N 45°24' W 073°36'0 0.0
2017-Apr-15 06:00N 45°24' W 073°36'0 0.0
2017-Apr-15 05:30N 45°24' W 073°36'0 0.0
2017-Apr-15 05:00N 45°24' W 073°36'0 0.0
2017-Apr-15 04:30N 45°24' W 073°36'0 0.0
2017-Apr-15 04:00N 45°24' W 073°36'0 0.0
2017-Apr-15 03:30N 45°24' W 073°36'0 0.0
2017-Apr-15 03:00N 45°24' W 073°36'0 0.0
2017-Apr-15 02:30N 45°24' W 073°36'0 0.1
2017-Apr-15 02:00N 45°24' W 073°36'1 2.6
2017-Apr-15 01:30N 45°24' W 073°34'0 0.6
2017-Apr-15 00:57N 45°24' W 073°33'0 0.1
2017-Apr-15 00:17N 45°24' W 073°33'0 0.8
2017-Apr-15 00:00N 45°24' W 073°33'1 1.4
2017-Apr-14 23:30N 45°24' W 073°34'0 0.8
2017-Apr-14 23:00N 45°24' W 073°35'2 3.3
2017-Apr-14 22:30N 45°24' W 073°37'3 5.6
2017-Apr-14 22:00N 45°25' W 073°41'3 5.9
2017-Apr-14 21:30N 45°24' W 073°45'510.9
2017-Apr-14 21:00N 45°21' W 073°51'4 7.0
2017-Apr-14 20:30N 45°19' W 073°55'0 0.1
2017-Apr-14 20:01N 45°19' W 073°55'1 1.5
2017-Apr-14 19:31N 45°18' W 073°56'0 0.6
2017-Apr-14 19:01N 45°18' W 073°56'2 3.9
2017-Apr-14 18:30N 45°16' W 073°57'4 8.9
2017-Apr-14 18:00N 45°13' W 074°02'5 2.9
2017-Apr-14 16:27N 45°14' W 074°08'2 0.3
2017-Apr-14 09:49N 45°13' W 074°05'2 4.8
2017-Apr-14 09:30N 45°13' W 074°03'1 1.0
2017-Apr-14 09:00N 45°13' W 074°02'3 5.9
2017-Apr-14 08:29N 45°13' W 074°07'4 8.5
2017-Apr-14 08:00N 45°14' W 074°12'3 3.3
2017-Apr-14 07:12N 45°13' W 074°16'1 4.7
2017-Apr-14 07:00N 45°13' W 074°17'  
Track history (hours):
 
Tides and Currents Weather Stations Pressure Air Temp Water Temp Dewpoint Dewpoint Depression Visibility Wind Speed Wind Dir Waves Ship Positions

Algowood

Last reported at 2017-Apr-15 12:56 UTC. Time now 2017-Apr-24 15:24 UTC.
Position N 45°12' W 074°18'.
Warning: this ship's position is 9 days out of date.

Length 223 m; draft 5.5 m.

Type: Cargo ship. MMSI: 316001802.

Date/timePositionNaut miles runAvg speedWind from/ knotsBaromVisibWave heightAir tempDewpointWater temp
2017-Apr-15 12:56N 45°12' W 074°18'610.4
2017-Apr-15 12:24N 45°14' W 074°11'5 8.2
2017-Apr-15 11:48N 45°13' W 074°04'3 8.6
2017-Apr-15 11:30N 45°14' W 074°00'4 8.7
2017-Apr-15 11:00N 45°17' W 073°56'1 2.5
2017-Apr-15 10:30N 45°18' W 073°56'1 1.6
2017-Apr-15 10:00N 45°19' W 073°55'0 0.0
2017-Apr-15 09:30N 45°19' W 073°55'0 0.1
2017-Apr-15 09:00N 45°19' W 073°55'2 3.8
2017-Apr-15 08:30N 45°20' W 073°53'510.4
2017-Apr-15 08:00N 45°24' W 073°48'4 8.6
2017-Apr-15 07:29N 45°25' W 073°41'3 6.0
2017-Apr-15 07:00N 45°24' W 073°37'1 2.5
2017-Apr-15 06:30N 45°24' W 073°36'0 0.0
2017-Apr-15 06:00N 45°24' W 073°36'0 0.0
2017-Apr-15 05:30N 45°24' W 073°36'0 0.0
2017-Apr-15 05:00N 45°24' W 073°36'0 0.0
2017-Apr-15 04:30N 45°24' W 073°36'0 0.0
2017-Apr-15 04:00N 45°24' W 073°36'0 0.0
2017-Apr-15 03:30N 45°24' W 073°36'0 0.0
2017-Apr-15 03:00N 45°24' W 073°36'0 0.0
2017-Apr-15 02:30N 45°24' W 073°36'0 0.1
2017-Apr-15 02:00N 45°24' W 073°36'1 2.6
2017-Apr-15 01:30N 45°24' W 073°34'0 0.6
2017-Apr-15 00:57N 45°24' W 073°33'0 0.1
2017-Apr-15 00:17N 45°24' W 073°33'0 0.8
2017-Apr-15 00:00N 45°24' W 073°33'1 1.4
2017-Apr-14 23:30N 45°24' W 073°34'0 0.8
2017-Apr-14 23:00N 45°24' W 073°35'2 3.3
2017-Apr-14 22:30N 45°24' W 073°37'3 5.6
2017-Apr-14 22:00N 45°25' W 073°41'3 5.9
2017-Apr-14 21:30N 45°24' W 073°45'510.9
2017-Apr-14 21:00N 45°21' W 073°51'4 7.0
2017-Apr-14 20:30N 45°19' W 073°55'0 0.1
2017-Apr-14 20:01N 45°19' W 073°55'1 1.5
2017-Apr-14 19:31N 45°18' W 073°56'0 0.6
2017-Apr-14 19:01N 45°18' W 073°56'2 3.9
2017-Apr-14 18:30N 45°16' W 073°57'4 8.9
2017-Apr-14 18:00N 45°13' W 074°02'5 2.9
2017-Apr-14 16:27N 45°14' W 074°08'2 0.3
2017-Apr-14 09:49N 45°13' W 074°05'2 4.8
2017-Apr-14 09:30N 45°13' W 074°03'1 1.0
2017-Apr-14 09:00N 45°13' W 074°02'3 5.9
2017-Apr-14 08:29N 45°13' W 074°07'4 8.5
2017-Apr-14 08:00N 45°14' W 074°12'3 3.3
2017-Apr-14 07:12N 45°13' W 074°16'1 4.7
2017-Apr-14 07:00N 45°13' W 074°17'  

Dump ship's entire track history